Geronimo — PD6553 — position and weather

sailwx.info

Track history (hours):
 
Tides and Currents Weather Stations Pressure Air Temp Water Temp Dewpoint Dewpoint Depression Visibility Wind Speed Wind Dir Waves Ship Positions

Geronimo

Last reported at 2016-Aug-16 16:18 UTC. Time now 2016-Aug-27 20:33 UTC.
Position N 42°28' E 010°34'.
Warning: this ship's position is 11 days out of date.

Length 20 m; draft 2.9 m.

Type: Sailing vessel. MMSI: 244620501.

Date/timePositionNaut miles runAvg speedWind from/ knotsBaromVisibWave heightAir tempDewpointWater temp
2016-Aug-16 16:18N 42°28' E 010°34'6 7.4
2016-Aug-16 15:30N 42°33' E 010°32'5 5.6
2016-Aug-16 14:33N 42°38' E 010°30'6 5.1
2016-Aug-16 13:27N 42°44' E 010°27'2 1.7
2016-Aug-16 12:29N 42°45' E 010°25'4 1.9
2016-Aug-16 10:10N 42°49' E 010°27'4 6.4
2016-Aug-16 09:33N 42°53' E 010°25'6 5.7
2016-Aug-16 08:31N 42°48' E 010°19'0 0.0
2016-Aug-16 07:30N 42°48' E 010°19'0 0.0
2016-Aug-16 04:32N 42°48' E 010°19'0 0.0
2016-Aug-16 03:33N 42°48' E 010°19'0 0.0
2016-Aug-16 02:26N 42°48' E 010°19'0 0.0
2016-Aug-15 20:27N 42°48' E 010°19'0 0.0
2016-Aug-15 18:29N 42°48' E 010°19'0 0.0
2016-Aug-15 14:26N 42°48' E 010°20'5 6.0
2016-Aug-15 13:33N 42°52' E 010°14'4 3.9
2016-Aug-15 12:33N 42°54' E 010°10'10 7.3
2016-Aug-15 11:15N 42°59' E 009°59'7 7.3
2016-Aug-15 10:18N 43°03' E 009°51'1 0.8
2016-Aug-15 09:33N 43°03' E 009°50'0 0.0
2016-Aug-15 08:31N 43°03' E 009°50'0 0.0
2016-Aug-15 07:33N 43°03' E 009°50'0 0.0
2016-Aug-15 06:33N 43°03' E 009°50'0 0.0
2016-Aug-15 04:33N 43°03' E 009°50'0 0.0
2016-Aug-15 03:33N 43°03' E 009°50'0 0.0
2016-Aug-15 02:32N 43°03' E 009°50'0 0.0
2016-Aug-15 01:33N 43°03' E 009°50'0 0.0
2016-Aug-15 00:33N 43°03' E 009°50'0 0.0
2016-Aug-14 23:32N 43°03' E 009°50'0 0.0
2016-Aug-14 22:22N 43°03' E 009°50'0 0.0
2016-Aug-14 21:32N 43°03' E 009°50'0 0.0
2016-Aug-14 20:20N 43°03' E 009°50'0 0.0
2016-Aug-14 19:33N 43°03' E 009°50'0 0.0
2016-Aug-14 18:32N 43°03' E 009°50'0 0.0
2016-Aug-14 17:33N 43°03' E 009°50'1 1.0
2016-Aug-14 16:33N 43°04' E 009°50'8 5.8
2016-Aug-14 15:11N 43°04' E 009°40'5 5.3
2016-Aug-14 14:11N 43°03' E 009°33'5 5.3
2016-Aug-14 13:15N 43°01' E 009°26'2 3.0
2016-Aug-14 12:33N 43°01' E 009°23'4 1.8
2016-Aug-14 10:24N 42°58' E 009°19'17 1.1
2016-Aug-13 19:32N 42°41' E 009°18'0 0.0
2016-Aug-13 18:33N 42°41' E 009°18'16 2.5
2016-Aug-13 12:20N 42°39' E 008°56'  
Track history (hours):
 
Tides and Currents Weather Stations Pressure Air Temp Water Temp Dewpoint Dewpoint Depression Visibility Wind Speed Wind Dir Waves Ship Positions

Geronimo

Last reported at 2016-Aug-16 16:18 UTC. Time now 2016-Aug-27 20:33 UTC.
Position N 42°28' E 010°34'.
Warning: this ship's position is 11 days out of date.

Length 20 m; draft 2.9 m.

Type: Sailing vessel. MMSI: 244620501.

Date/timePositionNaut miles runAvg speedWind from/ knotsBaromVisibWave heightAir tempDewpointWater temp
2016-Aug-16 16:18N 42°28' E 010°34'6 7.4
2016-Aug-16 15:30N 42°33' E 010°32'5 5.6
2016-Aug-16 14:33N 42°38' E 010°30'6 5.1
2016-Aug-16 13:27N 42°44' E 010°27'2 1.7
2016-Aug-16 12:29N 42°45' E 010°25'4 1.9
2016-Aug-16 10:10N 42°49' E 010°27'4 6.4
2016-Aug-16 09:33N 42°53' E 010°25'6 5.7
2016-Aug-16 08:31N 42°48' E 010°19'0 0.0
2016-Aug-16 07:30N 42°48' E 010°19'0 0.0
2016-Aug-16 04:32N 42°48' E 010°19'0 0.0
2016-Aug-16 03:33N 42°48' E 010°19'0 0.0
2016-Aug-16 02:26N 42°48' E 010°19'0 0.0
2016-Aug-15 20:27N 42°48' E 010°19'0 0.0
2016-Aug-15 18:29N 42°48' E 010°19'0 0.0
2016-Aug-15 14:26N 42°48' E 010°20'5 6.0
2016-Aug-15 13:33N 42°52' E 010°14'4 3.9
2016-Aug-15 12:33N 42°54' E 010°10'10 7.3
2016-Aug-15 11:15N 42°59' E 009°59'7 7.3
2016-Aug-15 10:18N 43°03' E 009°51'1 0.8
2016-Aug-15 09:33N 43°03' E 009°50'0 0.0
2016-Aug-15 08:31N 43°03' E 009°50'0 0.0
2016-Aug-15 07:33N 43°03' E 009°50'0 0.0
2016-Aug-15 06:33N 43°03' E 009°50'0 0.0
2016-Aug-15 04:33N 43°03' E 009°50'0 0.0
2016-Aug-15 03:33N 43°03' E 009°50'0 0.0
2016-Aug-15 02:32N 43°03' E 009°50'0 0.0
2016-Aug-15 01:33N 43°03' E 009°50'0 0.0
2016-Aug-15 00:33N 43°03' E 009°50'0 0.0
2016-Aug-14 23:32N 43°03' E 009°50'0 0.0
2016-Aug-14 22:22N 43°03' E 009°50'0 0.0
2016-Aug-14 21:32N 43°03' E 009°50'0 0.0
2016-Aug-14 20:20N 43°03' E 009°50'0 0.0
2016-Aug-14 19:33N 43°03' E 009°50'0 0.0
2016-Aug-14 18:32N 43°03' E 009°50'0 0.0
2016-Aug-14 17:33N 43°03' E 009°50'1 1.0
2016-Aug-14 16:33N 43°04' E 009°50'8 5.8
2016-Aug-14 15:11N 43°04' E 009°40'5 5.3
2016-Aug-14 14:11N 43°03' E 009°33'5 5.3
2016-Aug-14 13:15N 43°01' E 009°26'2 3.0
2016-Aug-14 12:33N 43°01' E 009°23'4 1.8
2016-Aug-14 10:24N 42°58' E 009°19'17 1.1
2016-Aug-13 19:32N 42°41' E 009°18'0 0.0
2016-Aug-13 18:33N 42°41' E 009°18'16 2.5
2016-Aug-13 12:20N 42°39' E 008°56'  

Dump ship's entire track history